• Join FlightAware (Why Join?)
  • Login
  • US Flag 
03:16PM EDT


 

Airport Tracker/Info


-or-


 

Live Flight TrackerFlight Track Log ✈ SWA2353 ✈ 30-Apr-2013 ✈ KPHL - KMDW

Flight Track Log - Related Links

Times and Time Zones

All times are in EDT time to prevent confusion due to time zone crossing. See the SWA2353 flight status page for this flight to view local times or setup timezone preferences in your user account.

Time Position Orientation Groundspeed Altitude Reporting Facility
EDT Latitude Longitude Course Direction KTS MPH feet Rate Location/Type
06:36PM 39.8833 -75.2167 72° East 140 161 1,100  Level Philadelphia TRACON
06:37PM 39.9000 -75.1500 72° East 220 253 3,600 2,940 Climbing Philadelphia TRACON
06:38PM 39.9333 -75.1000 49° Northeast 227 261 7,300 3,180 Climbing Philadelphia TRACON
06:39PM 40.0000 -75.1167 349° North 252 290 10,000 1,320 Climbing Philadelphia TRACON
06:40PM 40.0500 -75.1833 314° West 285 328 10,000 180 Level Philadelphia TRACON
06:42PM 40.1475 -75.4036 300° West 332 382 10,700 1,260 Climbing New York Center
06:43PM 40.1994 -75.5183 301° West 338 389 14,300 3,120 Climbing New York Center
06:44PM 40.2619 -75.6206 309° West 350 403 17,000 2,220 Climbing New York Center
06:45PM 40.3286 -75.7206 311° West 357 411 18,700 2,340 Climbing New York Center
06:46PM 40.3778 -75.8358 299° West 369 425 21,700 2,700 Climbing New York Center
06:47PM 40.3931 -75.9650 279° West 369 425 24,200 2,460 Climbing New York Center
06:48PM 40.4136 -76.1111 281° West 393 452 26,700 2,220 Climbing New York Center
06:49PM 40.4381 -76.2603 282° West 412 474 28,800 2,220 Climbing New York Center
06:50PM 40.4603 -76.4067 281° West 418 481 31,200 2,220 Climbing New York Center
06:51PM 40.4842 -76.5589 282° West 418 481 33,200 1,800 Climbing New York Center
06:52PM 40.5078 -76.7136 281° West 418 481 34,800 1,320 Climbing New York Center
06:53PM 40.5314 -76.8658 282° West 418 481 36,000 600 Climbing New York Center
06:54PM 40.5528 -77.0153 281° West 428 493 36,000  Level New York Center
06:55PM 40.5758 -77.1678 281° West 428 493 36,000  Level New York Center
06:56PM 40.6042 -77.3344 283° West 428 493 36,000  Level New York Center
06:57PM 40.6247 -77.4897 280° West 428 493 36,000  Level New York Center
07:00PM 40.6769 -77.8617 281° West 433 498 36,000  Level Cleveland Center
07:01PM 40.6992 -78.0169 281° West 433 498 36,000  Level Cleveland Center
07:02PM 40.7192 -78.1694 280° West 433 498 36,000  Level Cleveland Center
07:03PM 40.7389 -78.3222 280° West 433 498 36,000  Level Cleveland Center
07:04PM 40.7606 -78.4750 281° West 427 491 36,000  Level Cleveland Center
07:05PM 40.7800 -78.6308 279° West 427 491 36,000  Level Cleveland Center
07:06PM 40.8014 -78.7836 281° West 427 491 36,000  Level Cleveland Center
07:07PM 40.8225 -78.9394 280° West 427 491 36,000  Level Cleveland Center
07:08PM 40.8456 -79.0900 281° West 427 491 36,000  Level Cleveland Center
07:09PM 40.8639 -79.2461 279° West 427 491 36,000  Level Cleveland Center
07:10PM 40.8844 -79.4022 280° West 427 491 36,000  Level Cleveland Center
07:11PM 40.9047 -79.5528 280° West 427 491 36,000  Level Cleveland Center
07:12PM 40.9247 -79.7119 279° West 432 497 36,000  Level Cleveland Center
07:13PM 40.9425 -79.8656 279° West 426 490 36,000  Level Cleveland Center
07:14PM 40.9622 -80.0194 280° West 426 490 36,000  Level Cleveland Center
07:15PM 40.9794 -80.1761 278° West 426 490 36,000  Level Cleveland Center
07:16PM 40.9986 -80.3300 279° West 426 490 36,000  Level Cleveland Center
07:17PM 41.0178 -80.4894 279° West 431 496 36,000  Level Cleveland Center
07:18PM 41.0364 -80.6436 279° West 431 496 36,000  Level Cleveland Center
07:19PM 41.0531 -80.7978 278° West 425 489 36,000  Level Cleveland Center
07:20PM 41.0714 -80.9494 279° West 425 489 36,000  Level Cleveland Center
07:21PM 41.0872 -81.1258 277° West 432 497 36,000  Level Cleveland Center
07:22PM 41.1053 -81.2803 279° West 432 497 36,000  Level Cleveland Center
07:23PM 41.1189 -81.4183 278° West 432 497 36,000  Level Cleveland Center
07:24PM 41.1406 -81.5922 279° West 427 491 36,000  Level Cleveland Center
07:25PM 41.1578 -81.7469 278° West 427 491 36,000  Level Cleveland Center
07:26PM 41.1728 -81.8989 278° West 427 491 36,000  Level Cleveland Center
07:27PM 41.1897 -82.0511 278° West 427 491 36,000  Level Cleveland Center
07:28PM 41.2019 -82.2114 276° West 427 491 36,000  Level Cleveland Center
07:29PM 41.2164 -82.3608 277° West 421 484 36,000  Level Cleveland Center
07:30PM 41.2308 -82.5131 277° West 421 484 36,000  Level Cleveland Center
07:31PM 41.2469 -82.6628 278° West 426 490 36,000  Level Cleveland Center
07:32PM 41.2628 -82.8178 278° West 420 483 36,000  Level Cleveland Center
07:33PM 41.2744 -82.9536 277° West 420 483 36,000  Level Cleveland Center
07:34PM 41.2878 -83.1089 277° West 425 489 36,000  Level Cleveland Center
07:35PM 41.3031 -83.2725 277° West 425 489 36,000  Level Cleveland Center
07:36PM 41.3178 -83.4281 277° West 425 489 36,000  Level Cleveland Center
07:37PM 41.3308 -83.5808 277° West 425 489 36,000  Level Cleveland Center
07:38PM 41.3456 -83.7308 277° West 425 489 36,000  Level Cleveland Center
07:39PM 41.3578 -83.8864 276° West 425 489 36,000  Level Cleveland Center
07:40PM 41.3719 -84.0394 277° West 425 489 36,000  Level Cleveland Center
07:42PM 41.3933 -84.2700 277° West 417 480 36,000 -1,200 Level Chicago Center
07:43PM 41.4086 -84.4544 276° West 419 482 32,900 -2,880 Descending Chicago Center
07:44PM 41.4211 -84.6119 276° West 428 493 30,100 -1,440 Descending Chicago Center
07:45PM 41.4339 -84.7694 276° West 428 493 30,000 -60 Descending Chicago Center
07:46PM 41.4458 -84.9258 276° West 424 488 30,000 -480 Level Chicago Center
07:47PM 41.4575 -85.0872 276° West 433 498 29,100 -960 Descending Chicago Center
07:48PM 41.4694 -85.2506 276° West 437 503 28,100 -2,040 Descending Chicago Center
07:49PM 41.4806 -85.4181 275° West 444 511 25,000 -2,040 Descending Chicago Center
07:50PM 41.4933 -85.5836 276° West 434 499 24,000 -1,260 Descending Chicago Center
07:51PM 41.5303 -85.7644 285° West 420 483 22,500 -2,100 Descending Chicago Center
07:52PM 41.5519 -85.9144 281° West 415 478 19,700 -2,640 Descending Chicago Center
07:53PM 41.5419 -86.0578 265° West 393 452 17,100 -2,520 Descending Chicago Center
07:54PM 41.5344 -86.1950 266° West 375 432 14,600 -2,400 Descending Chicago Center
07:55PM 41.5272 -86.3275 266° West 362 417 12,200 -2,040 Descending Chicago Center
07:56PM 41.5219 -86.4508 267° West 339 390 10,500 -1,020 Descending Chicago Center
07:57PM 41.5208 -86.5803 269° West 287 330 10,100 -240 Descending Chicago Center
07:58PM 41.5192 -86.6861 269° West 288 331 10,100  Level Chicago Center
07:59PM 41.5183 -86.8111 270° West 321 369 10,100 -300 Level Chicago Center
08:00PM 41.5183 -86.9117 270° West 279 321 9,500 -1,020 Descending Chicago Center
08:01PM 41.5167 -87.0117 269° West 272 313 8,000 -1,560 Descending Chicago Center
08:02PM 41.5158 -87.1083 269° West 265 305 6,300 -1,440 Descending Chicago Center
08:03PM 41.5167 -87.2167 271° West 264 304 5,300 -1,260 Descending Chicago TRACON
08:04PM 41.5167 -87.3000 270° West 266 306 4,100 -660 Descending Chicago TRACON
08:05PM 41.5667 -87.3833 309° West 272 313 4,100 -180 Level Chicago TRACON
08:05PM 41.5675 -87.4017 273° West 275 316 3,900 -180 Descending Chicago Center
08:06PM 41.6039 -87.4717 305° West 253 291 3,900  Level Chicago Center
08:07PM 41.6369 -87.5314 307° West 226 260 4,000 -180 Climbing Chicago Center
08:08PM 41.6739 -87.5997 306° West 205 236 3,600 -600 Descending Chicago Center
08:09PM 41.7000 -87.6333 316° Northwest 199 229 3,100 -960 Descending Chicago TRACON
08:10PM 41.7333 -87.6833 312° West 204 235 2,200 -600 Descending Chicago TRACON
08:11PM 41.7833 -87.6833 360° North 177 204 1,900 -540 Descending Chicago TRACON
08:12PM 41.8167 -87.7167 323° Northwest 148 170 1,200 -720 Descending Chicago TRACON